Keene, Canada
Current Conditions -  °F | °C
As of 10:30 PM on Monday 20 Oct 2014 (Local Time) from CYPQ Reporting Station
Light Rain Light Rain  
Wind Chill: 50°   Ceiling: 500
Heat Index: 50°   Visibility: 1.5mi
Dew Point: 48°   Wind: 7mph
Humidity: 94%   Direction: 180°S
Pressure: 29.8"   Gusts: NA
Location:  44.24°N, 78.16°W
Report Text: CYPQ 210230Z AUTO 18006KT 1 1/2SM -RA BR BKN005 OVC014 10/09 A2980 RMK PCPN 0.8MM PAST HR SLP096
Loading
Personal Weather Stations






























Interactive Weather Map
Tropical Storm Tracking
New forecast layout! Learn more

10-Day Weather Forecast

Advertisements
Track Severe Weather on mobile